Time;durP1;ratioP1;P1;durP2;ratioP2;P2;SDS_P1;SDS_P2;PMS_P1;PMS_P2;Temp;Humidity;BMP_temperature;BMP_pressure;BME280_temperature;BME280_humidity;BME280_pressure;Samples;Min_cycle;Max_cycle;Signal;HPM_P1;HPM_P2
2023/03/23 00:02:04;;;;;;;0.60;0.60;;;12.50;46.40;11.90;95435.00;;;;5053970;28;20184;-61
2023/03/23 00:04:31;;;;;;;0.60;0.60;;;12.50;46.70;11.80;95427.00;;;;5053994;28;20602;-62
2023/03/23 00:07:00;;;;;;;0.70;0.70;;;;;11.90;95439.00;;;;5053868;28;20282;-61
2023/03/23 00:09:28;;;;;;;0.60;0.60;;;;;11.90;95430.00;;;;5054055;28;20218;-62
2023/03/23 00:12:04;;;;;;;0.60;0.60;;;;;11.90;95437.00;;;;5053506;28;20216;-61
2023/03/23 00:14:40;;;;;;;0.60;0.60;;;;;11.90;95430.00;;;;5053562;28;20670;-62
2023/03/23 00:17:10;;;;;;;0.50;0.50;;;;;12.00;95422.00;;;;5054143;28;20215;-61
2023/03/23 00:19:45;;;;;;;0.60;0.60;;;;;11.90;95424.00;;;;5053958;28;20196;-61
2023/03/23 00:22:14;;;;;;;0.67;0.67;;;;;11.90;95424.00;;;;5053729;28;20576;-61
2023/03/23 00:24:41;;;;;;;0.60;0.60;;;;;12.00;95424.00;;;;5053065;28;20199;-61
2023/03/23 00:27:12;;;;;;;0.67;0.67;;;;;12.00;95426.00;;;;5053278;28;20216;-61
2023/03/23 00:29:41;;;;;;;0.50;0.50;;;;;11.80;95424.00;;;;5053232;28;20223;-62
2023/03/23 00:32:12;;;;;;;0.70;0.70;;;;;11.80;95419.00;;;;5053297;28;20219;-62
2023/03/23 00:34:43;;;;;;;0.80;0.80;;;;;11.80;95412.00;;;;5053541;28;20218;-62
2023/03/23 00:37:11;;;;;;;0.73;0.73;;;;;11.70;95417.00;;;;5053439;28;20286;-62
2023/03/23 00:39:45;;;;;;;0.90;0.90;;;;;11.80;95402.00;;;;5053340;28;20192;-62
2023/03/23 00:42:14;;;;;;;0.60;0.60;;;;;11.90;95392.00;;;;5053573;28;20255;-62
2023/03/23 00:44:43;;;;;;;1.10;1.10;;;;;11.80;95398.00;;;;5053173;28;20231;-62
2023/03/23 00:47:12;;;;;;;0.70;0.70;;;;;11.70;95395.00;;;;5052996;28;20243;-62
2023/03/23 00:49:40;;;;;;;0.70;0.70;;;;;11.70;95393.00;;;;5053239;28;20188;-62
2023/03/23 00:52:08;;;;;;;0.63;0.63;;;;;11.70;95388.00;;;;5052968;28;20281;-62
2023/03/23 00:54:37;;;;;;;0.60;0.60;;;;;11.80;95391.00;;;;5053269;28;20597;-62
2023/03/23 00:57:05;;;;;;;0.80;0.80;;;;;11.80;95381.00;;;;5052843;28;20220;-62
2023/03/23 00:59:33;;;;;;;0.60;0.60;;;;;11.80;95390.00;;;;5052942;28;20204;-62
2023/03/23 01:02:00;;;;;;;0.70;0.70;;;;;11.80;95388.00;;;;5053489;28;20188;-62
2023/03/23 01:04:31;;;;;;;0.60;0.60;;;;;11.80;95394.00;;;;5052854;28;20202;-62
2023/03/23 01:07:00;;;;;;;0.90;0.90;;;;;11.70;95391.00;;;;5052919;28;20216;-62
2023/03/23 01:09:27;;;;;;;0.70;0.70;;;;;11.80;95395.00;;;;5053033;28;20605;-62
2023/03/23 01:11:56;;;;;;;0.60;0.60;;;;;11.90;95390.00;;;;5053061;28;20215;-62
2023/03/23 01:14:24;;;;;;;0.73;0.73;;;;;12.00;95382.00;;;;5051595;28;20196;-62
2023/03/23 01:16:52;;;;;;;0.50;0.50;;;;;11.80;95381.00;;;;5052851;28;20216;-62
2023/03/23 01:19:20;;;;;;;2.17;1.33;;;;;11.80;95384.00;;;;5053511;28;20215;-62
2023/03/23 01:21:49;;;;;;;0.67;0.67;;;;;11.70;95378.00;;;;5053529;28;20242;-62
2023/03/23 01:24:16;;;;;;;0.60;0.60;;;;;11.70;95382.00;;;;5052990;28;20303;-62
2023/03/23 01:26:44;;;;;;;0.60;0.60;;;;;11.70;95369.00;;;;5052847;28;20578;-62
2023/03/23 01:29:11;;;;;;;0.77;0.77;;;;;11.60;95374.00;;;;5052689;28;20684;-61
2023/03/23 01:31:39;;;;;;;0.53;0.53;;;;;11.60;95360.00;;;;5052801;28;20702;-61
2023/03/23 01:34:06;;;;;;;0.90;0.90;;;;;11.60;95353.00;;;;5051346;28;20222;-61
2023/03/23 01:36:35;;;;;;;0.63;0.63;;;;;11.70;95356.00;;;;5053496;28;20270;-60
2023/03/23 01:39:06;;;;;;;0.50;0.50;;;;;11.80;95345.00;;;;5055169;28;20196;-62
2023/03/23 01:41:35;;;;;;;0.70;0.70;;;;;11.90;95347.00;;;;5056761;28;20642;-62
2023/03/23 01:44:05;;;;;;;0.70;0.70;;;;;11.80;95341.00;;;;5056645;28;20199;-62
2023/03/23 01:46:35;;;;;;;0.80;0.80;;;;;11.70;95337.00;;;;5056164;28;20269;-62
2023/03/23 01:49:08;;;;;;;0.70;0.70;;;;;11.90;95339.00;;;;5056251;28;20188;-62
2023/03/23 01:51:37;;;;;;;0.77;0.77;;;;;11.80;95353.00;;;;5056519;28;20196;-62
2023/03/23 01:54:13;;;;;;;0.70;0.70;;;;;11.90;95356.00;;;;5056144;28;20532;-62
2023/03/23 01:56:46;;;;;;;1.07;1.07;;;;;11.90;95352.00;;;;5056375;28;20675;-62
2023/03/23 01:59:15;;;;;;;1.23;0.80;;;;;11.70;95346.00;;;;5056449;28;20250;-62
2023/03/23 02:01:44;;;;;;;0.70;0.70;;;;;11.80;95340.00;;;;5056062;28;20191;-62
2023/03/23 02:04:14;;;;;;;0.87;0.87;;;;;11.70;95335.00;;;;5056101;28;20199;-62
2023/03/23 02:06:42;;;;;;;0.90;0.90;;;;;11.70;95339.00;;;;5056411;28;20216;-62
2023/03/23 02:09:13;;;;;;;0.60;0.60;;;;;11.60;95339.00;;;;5056228;28;20540;-62
2023/03/23 02:11:41;;;;;;;0.60;0.60;;;;;11.60;95334.00;;;;5056123;28;20204;-62
2023/03/23 02:14:08;;;;;;;0.60;0.60;;;;;11.60;95334.00;;;;5056101;28;20201;-62
2023/03/23 02:16:45;;;;;;;0.70;0.70;;;;;11.60;95331.00;;;;5055699;28;20687;-62
2023/03/23 02:19:40;;;;;;;1.10;1.00;;;;;11.60;95321.00;;;;5056440;28;20584;-61
2023/03/23 02:22:39;;;;;;;0.57;0.57;;;;;11.60;95326.00;;;;5054115;28;20200;-62
2023/03/23 02:25:26;;;;;;;0.60;0.60;;;;;11.60;95328.00;;;;5056069;28;20181;-62
2023/03/23 02:28:30;;;;;;;0.60;0.60;;;;;11.60;95318.00;;;;5055466;28;20699;-62
2023/03/23 02:31:17;;;;;;;1.13;1.00;;;;;11.60;95307.00;;;;5055586;28;20207;-62
2023/03/23 02:33:51;;;;;;;0.50;0.50;;;;;11.50;95301.00;;;;5055511;28;20223;-62
2023/03/23 02:36:25;;;;;;;0.60;0.60;;;;;11.50;95296.00;;;;5055327;28;20265;-61
2023/03/23 02:39:00;;;;;;;0.90;0.90;;;;;11.50;95300.00;;;;5055412;28;20650;-61
2023/03/23 02:41:32;;;;;;;1.27;1.17;;;;;11.60;95284.00;;;;5055714;28;20187;-62
2023/03/23 02:44:02;;;;;;;0.80;0.80;;;;;11.40;95280.00;;;;5055197;28;20176;-62
2023/03/23 02:46:31;;;;;;;1.27;1.03;;;;;11.90;95276.00;;;;5055122;28;20219;-62
2023/03/23 02:49:02;;;;;;;0.63;0.63;;;;;11.70;95275.00;;;;5054863;28;20203;-62
2023/03/23 02:51:30;;;;;;;1.07;1.07;;;;;11.70;95271.00;;;;5055340;28;20307;-62
2023/03/23 02:53:58;;;;;;;1.17;1.17;;;;;11.90;95275.00;;;;5055146;28;20211;-62
2023/03/23 02:56:29;;;;;;;0.70;0.70;;;;;12.20;95270.00;;;;5055112;28;20219;-62
2023/03/23 02:58:57;;;;;;;0.70;0.70;;;;;12.10;95279.00;;;;5054933;28;20685;-61
2023/03/23 03:02:07;;;;;;;0.97;0.97;;;;;11.90;95275.00;;;;5055192;28;20535;-62
2023/03/23 03:04:40;;;;;;;1.67;1.13;;;;;12.10;95274.00;;;;5055132;28;20180;-62
2023/03/23 03:07:48;;;;;;;0.50;0.50;;;;;12.10;95279.00;;;;5055116;28;20216;-62
2023/03/23 03:10:21;;;;;;;0.60;0.60;;;;;12.00;95280.00;;;;5055103;28;20179;-62
2023/03/23 03:12:56;;;;;;;0.80;0.80;;;;;12.00;95272.00;;;;5054954;28;20201;-62
2023/03/23 03:15:29;;;;;;;0.60;0.60;;;;;11.90;95275.00;;;;5053422;28;20200;-61
2023/03/23 03:18:04;;;;;;;0.73;0.73;;;;;11.70;95264.00;;;;5054895;28;20687;-62
2023/03/23 03:20:35;;;;;;;0.80;0.80;;;;;11.80;95264.00;;;;5054942;28;20180;-62
2023/03/23 03:23:07;;;;;;;1.43;1.33;;;;;11.70;95255.00;;;;5054959;28;20181;-62
2023/03/23 03:25:35;;;;;;;0.70;0.70;;;;;11.60;95261.00;;;;5054552;28;20180;-62
2023/03/23 03:28:04;;;;;;;0.60;0.60;;;;;11.70;95270.00;;;;5054422;28;20706;-62
2023/03/23 03:30:37;;;;;;;0.60;0.60;;;;;11.60;95268.00;;;;5054411;28;20554;-62
2023/03/23 03:33:04;;;;;;;0.70;0.70;;;;;11.60;95265.00;;;;5054263;28;20665;-62
2023/03/23 03:35:36;;;;;;;0.80;0.80;;;;;11.50;95265.00;;;;5054817;28;20228;-62
2023/03/23 03:38:07;;;;;;;0.60;0.60;;;;;11.70;95268.00;;;;5054217;28;20219;-62
2023/03/23 03:40:35;;;;;;;0.60;0.60;;;;;11.80;95266.00;;;;5054150;28;20188;-62
2023/03/23 03:43:03;;;;;;;4.63;1.10;;;;;11.60;95266.00;;;;5054038;28;20191;-62
2023/03/23 03:45:31;;;;;;;1.00;1.00;;;;;11.60;95261.00;;;;5054350;28;20196;-62
2023/03/23 03:47:58;;;;;;;0.60;0.60;;;;;11.60;95258.00;;;;5054274;28;20259;-62
2023/03/23 03:50:26;;;;;;;0.50;0.50;;;;;11.70;95268.00;;;;5053946;28;20196;-62
2023/03/23 03:52:54;;;;;;;8.67;0.93;;;;;11.80;95259.00;;;;5054108;28;20227;-61
2023/03/23 03:55:22;;;;;;;0.60;0.60;;;;;12.00;95259.00;;;;5053854;28;20196;-62
2023/03/23 03:57:49;;;;;;;0.93;0.93;;;;;11.90;95251.00;;;;5053883;28;20231;-62
2023/03/23 04:00:18;;;;;;;0.57;0.57;;;;;12.20;95258.00;;;;5053230;28;20195;-62
2023/03/23 04:02:51;;;;;;;0.80;0.80;;;;;12.10;95258.00;;;;5053768;28;20279;-61
2023/03/23 04:05:20;;;;;;;0.93;0.93;;;;;12.10;95263.00;;;;5053792;28;20699;-61
2023/03/23 04:07:51;;;;;;;0.77;0.77;;;;;12.30;95278.00;;;;5053875;28;20766;-62
2023/03/23 04:10:22;;;;;;;0.53;0.53;;;;;12.30;95269.00;;;;5054225;28;20187;-62
2023/03/23 04:12:50;;;;;;;0.80;0.80;;;;;12.40;95272.00;;;;5053563;28;20203;-62
2023/03/23 04:15:17;;;;;;;0.60;0.60;;;;;12.40;95270.00;;;;5053568;28;20189;-61
2023/03/23 04:17:45;;;;;;;0.70;0.70;;;;;12.60;95266.00;;;;5053480;28;20230;-61
2023/03/23 04:20:17;;;;;;;0.77;0.77;;;;;12.50;95276.00;;;;5053453;28;20202;-61
2023/03/23 04:22:44;;;;;;;0.70;0.70;;;;;12.50;95261.00;;;;5053683;28;20188;-62
2023/03/23 04:25:14;;;;;;;0.97;0.97;;;;;12.60;95255.00;;;;5053390;28;20206;-62
2023/03/23 04:27:45;;;;;;;0.97;0.97;;;;;12.60;95256.00;;;;5052097;28;20217;-61
2023/03/23 04:30:14;;;;;;;0.60;0.60;;;;;12.70;95253.00;;;;5053663;28;20181;-62
2023/03/23 04:32:42;;;;;;;0.70;0.70;;;;;12.70;95249.00;;;;5053452;28;20220;-61
2023/03/23 04:35:13;;;;;;;0.57;0.57;;;;;12.70;95248.00;;;;5051994;28;20206;-62
2023/03/23 04:37:42;;;;;;;0.97;0.97;;;;;12.60;95266.00;;;;5053470;28;20342;-62
2023/03/23 04:40:14;;;;;;;0.60;0.60;;;;;12.60;95259.00;;;;5053433;28;20608;-62
2023/03/23 04:42:45;;;;;;;0.60;0.60;;;;;12.60;95274.00;;;;5053510;28;20535;-61
2023/03/23 04:45:15;;;;;;;1.00;1.00;;;;;12.60;95267.00;;;;5053430;28;20188;-62
2023/03/23 04:47:52;;;;;;;0.60;0.60;;;;;12.50;95271.00;;;;5075669;22;20285;-57
2023/03/23 04:50:21;;;;;;;0.77;0.77;;;;;12.60;95279.00;;;;5073171;28;20183;-58
2023/03/23 04:52:51;;;;;;;0.60;0.60;;;;;12.60;95275.00;;;;5073288;28;20219;-58
2023/03/23 04:55:19;;;;;;;0.60;0.60;;;;;12.50;95274.00;;;;5073362;28;20565;-58
2023/03/23 04:57:48;;;;;;;1.10;1.07;;;;;12.60;95275.00;;;;5072979;28;20289;-58
2023/03/23 05:00:16;;;;;;;0.90;0.90;;;;;12.60;95281.00;;;;5073061;28;20196;-58
2023/03/23 05:02:46;;;;;;;0.50;0.50;;;;;12.50;95274.00;;;;5073295;28;20252;-58
2023/03/23 05:05:15;;;;;;;0.50;0.50;;;;;12.40;95270.00;;;;5073029;28;20191;-58
2023/03/23 05:07:43;;;;;;;0.70;0.70;;;;;12.50;95270.00;;;;5072933;28;20209;-58
2023/03/23 05:10:12;;;;;;;3.40;1.00;;;;;12.40;95274.00;;;;5073256;28;20200;-58
2023/03/23 05:12:39;;;;;;;0.70;0.70;;;;;12.30;95271.00;;;;5075772;28;20618;-58
2023/03/23 05:15:10;;;;;;;0.87;0.87;;;;;12.40;95280.00;;;;5077221;28;20192;-58
2023/03/23 05:17:38;;;;;;;0.50;0.50;;;;;12.40;95279.00;;;;5075855;28;20690;-58
2023/03/23 05:20:08;;;;;;;0.60;0.60;;;;;12.20;95281.00;;;;5076945;28;20241;-58
2023/03/23 05:22:36;;;;;;;0.60;0.60;;;;;12.40;95274.00;;;;5077928;28;20191;-58
2023/03/23 05:25:04;;;;;;;0.70;0.70;;;;;12.30;95274.00;;;;5076846;28;20191;-58
2023/03/23 05:27:32;;;;;;;0.70;0.70;;;;;12.20;95274.00;;;;5076916;28;20276;-58
2023/03/23 05:30:01;;;;;;;0.83;0.83;;;;;12.00;95274.00;;;;5076737;28;20191;-58
2023/03/23 05:32:30;;;;;;;1.37;1.27;;;;;11.80;95278.00;;;;5076559;28;20192;-59
2023/03/23 05:34:58;;;;;;;0.87;0.87;;;;;12.00;95270.00;;;;5076616;28;20187;-59
2023/03/23 05:37:28;;;;;;;0.87;0.87;;;;;12.00;95273.00;;;;5076489;28;20269;-58
2023/03/23 05:39:56;;;;;;;0.80;0.80;;;;;11.90;95273.00;;;;5076481;28;20196;-58
2023/03/23 05:42:23;;;;;;;0.57;0.57;;;;;11.80;95273.00;;;;5076950;28;20192;-58
2023/03/23 05:44:51;;;;;;;0.70;0.70;;;;;11.70;95274.00;;;;5076710;28;20195;-58
2023/03/23 05:47:19;;;;;;;0.67;0.67;;;;;11.70;95284.00;;;;5076355;28;20597;-58
2023/03/23 05:49:48;;;;;;;0.70;0.70;;;;;11.80;95283.00;;;;5076351;28;20199;-58
2023/03/23 05:52:15;;;;;;;0.80;0.80;;;;;11.90;95285.00;;;;5076571;28;20196;-58
2023/03/23 05:54:42;;;;;;;0.63;0.63;;;;;11.80;95281.00;;;;5076191;28;20211;-58
2023/03/23 05:57:10;;;;;;;0.60;0.60;;;;;11.80;95291.00;;;;5076362;28;20265;-58
2023/03/23 05:59:38;;;;;;;0.60;0.60;;;;;11.90;95293.00;;;;5076174;28;20203;-58
2023/03/23 06:02:05;;;;;;;0.77;0.77;;;;;11.80;95293.00;;;;5074813;28;20639;-58
2023/03/23 06:04:34;;;;;;;0.60;0.60;;;;;11.90;95292.00;;;;5076292;28;20192;-58
2023/03/23 06:07:03;;;;;;;0.80;0.80;;;;;11.90;95300.00;;;;5074654;28;20686;-58
2023/03/23 06:09:31;;;;;;;0.60;0.60;;;;;12.10;95308.00;;;;5076028;28;20199;-58
2023/03/23 06:11:58;;;;;;;0.40;0.40;;;;;12.10;95314.00;;;;5076125;28;20616;-58
2023/03/23 06:14:26;;;;;;;0.60;0.60;;;;;12.10;95322.00;;;;5075808;28;20211;-58
2023/03/23 06:16:53;;;;;;;1.63;1.53;;;;;12.00;95320.00;;;;5075823;28;20191;-58
2023/03/23 06:19:20;;;;;;;0.80;0.80;;;;;11.90;95309.00;;;;5075973;28;20199;-58
2023/03/23 06:21:48;;;;;;;0.83;0.83;;;;;12.00;95326.00;;;;5075360;28;20188;-58
2023/03/23 06:24:17;;;;;;;0.53;0.53;;;;;12.00;95316.00;;;;5075474;28;20188;-58
2023/03/23 06:26:44;;;;;;;1.10;1.10;;;;;12.00;95325.00;;;;5075643;28;20195;-58
2023/03/23 06:29:12;;;;;;;0.60;0.60;;;;;12.00;95333.00;;;;5075790;28;20219;-58
2023/03/23 06:31:41;;;;;;;0.60;0.60;;;;;12.10;95333.00;;;;5075706;28;20191;-58
2023/03/23 06:34:09;;;;;;;0.50;0.50;;;;;12.10;95321.00;;;;5075372;28;20215;-58
2023/03/23 06:36:38;;;;;;;1.30;1.30;;;;;12.10;95332.00;;;;5075238;28;20195;-58
2023/03/23 06:39:06;;;;;;;0.40;0.40;;;;;12.20;95337.00;;;;5075711;28;20603;-58
2023/03/23 06:41:35;;;;;;;0.93;0.80;;;;;12.30;95333.00;;;;5075967;28;20194;-58
2023/03/23 06:44:03;;;;;;;0.70;0.70;;;;;12.40;95338.00;;;;5075433;28;20198;-58
2023/03/23 06:46:30;;;;;;;0.70;0.70;;;;;12.50;95354.00;;;;5075324;28;20199;-58
2023/03/23 06:48:58;;;;;;;1.00;1.00;;;;;12.50;95344.00;;;;5075052;28;20214;-58
2023/03/23 06:51:26;;;;;;;0.50;0.50;;;;;12.50;95346.00;;;;5075201;28;20202;-58
2023/03/23 06:53:53;;;;;;;0.90;0.90;;;;;12.40;95348.00;;;;5075094;28;20215;-58
2023/03/23 06:56:20;;;;;;;0.80;0.80;;;;;12.40;95342.00;;;;5075895;28;20199;-58
2023/03/23 06:58:49;;;;;;;0.90;0.90;;;;;12.50;95341.00;;;;5074989;28;20215;-58
2023/03/23 07:01:17;;;;;;;0.57;0.57;;;;;12.50;95335.00;;;;5075005;28;20192;-58
2023/03/23 07:03:45;;;;;;;0.77;0.77;;;;;12.50;95353.00;;;;5075050;28;20188;-58
2023/03/23 07:06:13;;;;;;;0.90;0.90;;;;;12.50;95351.00;;;;5075200;28;20570;-58
2023/03/23 07:08:40;;;;;;;0.90;0.90;;;;;12.70;95360.00;;;;5073519;28;20226;-58
2023/03/23 07:11:08;;;;;;;1.33;1.23;;;;;12.50;95367.00;;;;5074830;28;20195;-58
2023/03/23 07:13:36;;;;;;;0.60;0.60;;;;;12.70;95364.00;;;;5075007;28;20302;-58
2023/03/23 07:16:06;;;;;;;0.70;0.70;;;;;12.70;95378.00;;;;5071576;28;20233;-60
2023/03/23 07:18:34;;;;;;;1.30;1.30;;;;;12.50;95391.00;;;;5071332;28;20269;-60
2023/03/23 07:21:02;;;;;;;0.90;0.90;;;;;12.60;95382.00;;;;5073292;28;20227;-59
2023/03/23 07:23:30;;;;;;;0.63;0.63;;;;;12.60;95398.00;;;;5072638;28;20198;-58
2023/03/23 07:25:58;;;;;;;0.50;0.50;;;;;12.40;95408.00;;;;5070895;28;20571;-58
2023/03/23 07:28:26;;;;;;;0.93;0.93;;;;;12.40;95403.00;;;;5071058;28;20234;-59
2023/03/23 07:30:53;;;;;;;2.83;1.83;;;;;12.50;95412.00;;;;5071797;28;20206;-57
2023/03/23 07:33:23;;;;;;;0.73;0.73;;;;;12.60;95406.00;;;;5072056;28;20199;-57
2023/03/23 07:35:50;;;;;;;0.60;0.60;;;;;12.70;95408.00;;;;5071986;28;20628;-57
2023/03/23 07:38:18;;;;;;;0.60;0.60;;;;;12.70;95401.00;;;;5072065;28;20212;-58
2023/03/23 07:40:46;;;;;;;0.60;0.60;;;;;12.70;95401.00;;;;5070979;28;20298;-57
2023/03/23 07:43:14;;;;;;;0.83;0.83;;;;;12.70;95396.00;;;;5072393;28;20187;-57
2023/03/23 07:45:41;;;;;;;0.60;0.60;;;;;12.90;95392.00;;;;5071773;28;20200;-57
2023/03/23 07:48:08;;;;;;;0.80;0.80;;;;;12.50;95396.00;;;;5072238;28;20231;-58
2023/03/23 07:50:37;;;;;;;0.67;0.67;;;;;12.60;95406.00;;;;5071558;28;20195;-58
2023/03/23 07:53:05;;;;;;;0.63;0.63;;;;;12.90;95413.00;;;;5072259;28;20203;-58
2023/03/23 07:55:33;;;;;;;0.67;0.67;;;;;12.70;95417.00;;;;5071835;28;20208;-58
2023/03/23 07:58:00;;;;;;;0.97;0.97;;;;;12.90;95416.00;;;;5071775;28;20778;-58
2023/03/23 08:00:28;;;;;;;0.80;0.80;;;;;12.80;95414.00;;;;5071858;28;20270;-58
2023/03/23 08:02:58;;;;;;;0.90;0.90;;;;;12.70;95403.00;;;;5071822;28;20282;-58
2023/03/23 08:05:27;;;;;;;0.70;0.70;;;;;12.90;95411.00;;;;5071884;28;20198;-58
2023/03/23 08:07:56;;;;;;;0.90;0.90;;;;;12.90;95422.00;;;;5071561;28;20361;-58
2023/03/23 08:10:26;;;;;;;0.83;0.83;;;;;12.70;95413.00;;;;5071780;28;20663;-58
2023/03/23 08:12:56;;;;;;;0.70;0.70;;;;;12.70;95410.00;;;;5071703;28;22013;-58
2023/03/23 08:15:24;;;;;;;0.70;0.70;;;;;12.90;95408.00;;;;5071491;28;20219;-58
2023/03/23 08:17:52;;;;;;;0.60;0.60;;;;;13.10;95424.00;;;;5071458;28;20215;-58
2023/03/23 08:20:20;;;;;;;0.70;0.70;;;;;13.20;95428.00;;;;5071414;28;20203;-58
2023/03/23 08:22:52;;;;;;;0.60;0.60;;;;;12.70;95428.00;;;;5071410;28;20268;-59
2023/03/23 08:25:23;;;;;;;0.70;0.70;;;;;12.50;95430.00;;;;5071404;28;20221;-57
2023/03/23 08:27:50;;;;;;;0.80;0.80;;;;;12.70;95427.00;;;;5071252;28;20211;-57
2023/03/23 08:30:22;;;;;;;0.77;0.73;;;;;12.50;95427.00;;;;5071668;28;20191;-57
2023/03/23 08:32:50;;;;;;;0.70;0.70;;;;;12.50;95430.00;;;;5065488;28;20238;-57
2023/03/23 08:35:19;;;;;;;0.60;0.60;;;;;12.50;95434.00;;;;5071339;28;20218;-56
2023/03/23 08:37:50;;;;;;;0.73;0.73;;;;;12.50;95437.00;;;;5070432;28;20214;-57
2023/03/23 08:40:21;;;;;;;0.60;0.60;;;;;12.50;95445.00;;;;5071014;28;20297;-57
2023/03/23 08:42:50;;;;;;;1.00;1.00;;;;;12.50;95448.00;;;;5070115;28;20198;-57
2023/03/23 08:45:20;;;;;;;1.13;0.70;;;;;12.50;95446.00;;;;5071050;28;20195;-57
2023/03/23 08:47:51;;;;;;;1.27;1.17;;;;;12.70;95437.00;;;;5070802;28;20234;-57
2023/03/23 08:50:22;;;;;;;0.60;0.60;;;;;12.50;95439.00;;;;5071570;28;20682;-57
2023/03/23 08:52:50;;;;;;;0.97;0.90;;;;;12.70;95437.00;;;;5070634;28;20191;-57
2023/03/23 08:55:18;;;;;;;0.60;0.60;;;;;13.00;95442.00;;;;5071001;28;20243;-56
2023/03/23 08:57:47;;;;;;;0.80;0.80;;;;;13.20;95445.00;;;;5070886;28;20242;-57
2023/03/23 09:00:19;;;;;;;0.70;0.70;;;;;12.70;95461.00;;;;5070584;28;20235;-57
2023/03/23 09:02:48;;;;;;;1.07;0.97;;;;;12.70;95461.00;;;;5069323;28;20258;-57
2023/03/23 09:05:17;;;;;;;0.60;0.60;;;;;12.60;95462.00;;;;5071224;28;20558;-58
2023/03/23 09:07:46;;;;;;;0.87;0.87;;;;;12.80;95460.00;;;;5070671;28;20222;-58
2023/03/23 09:10:14;;;;;;;0.87;0.87;;;;;12.80;95462.00;;;;5071064;28;20195;-57
2023/03/23 09:12:43;;;;;;;0.60;0.60;;;;;12.90;95452.00;;;;5069541;28;20350;-57
2023/03/23 09:15:15;;;;;;;0.63;0.63;;;;;12.90;95454.00;;;;5071029;28;20223;-57
2023/03/23 09:17:45;;;;;;;0.93;0.93;;;;;12.70;95470.00;;;;5071239;28;20226;-58
2023/03/23 09:20:15;;;;;;;0.80;0.80;;;;;12.90;95475.00;;;;5070841;28;20196;-58
2023/03/23 09:22:44;;;;;;;0.70;0.70;;;;;13.00;95483.00;;;;5069707;28;20207;-57
2023/03/23 09:25:14;;;;;;;0.60;0.60;;;;;12.90;95482.00;;;;5069673;28;20194;-59
2023/03/23 09:27:42;;;;;;;0.60;0.60;;;;;13.00;95484.00;;;;5070685;28;20712;-57
2023/03/23 09:30:14;;;;;;;0.60;0.60;;;;;13.20;95482.00;;;;5070629;28;20195;-57
2023/03/23 09:32:44;;;;;;;0.80;0.80;;;;;12.70;95483.00;;;;5070756;28;20253;-56
2023/03/23 09:35:13;;;;;;;0.70;0.70;;;;;12.90;95493.00;;;;5069290;28;20231;-57
2023/03/23 09:37:41;;;;;;;0.60;0.60;;;;;12.90;95481.00;;;;5070568;28;20268;-57
2023/03/23 09:40:14;;;;;;;0.97;0.93;;;;;13.00;95490.00;;;;5070650;28;20195;-58
2023/03/23 09:42:59;;;;;;;0.60;0.60;;;;;13.10;95496.00;;;;5070523;28;20270;-57
2023/03/23 09:45:32;;;;;;;0.70;0.70;;;;;12.70;95491.00;;;;5068244;28;20678;-57
2023/03/23 09:48:30;;;;;;;0.63;0.63;;;;;13.30;95488.00;;;;5069787;28;20223;-56
2023/03/23 09:51:05;;;;;;;0.93;0.87;;;;;13.30;95489.00;;;;5067196;28;20774;-56
2023/03/23 09:53:40;;;;;;;0.87;0.87;;;13.60;59.40;12.80;95489.00;;;;5070708;28;20602;-56
2023/03/23 09:56:13;;;;;;;0.50;0.50;;;13.50;59.80;13.10;95480.00;;;;5070540;28;20464;-57
2023/03/23 09:58:51;;;;;;;0.90;0.90;;;13.60;60.20;13.60;95492.00;;;;5072853;28;20215;-57
2023/03/23 10:01:26;;;;;;;0.60;0.60;;;;;13.30;95480.00;;;;5073297;28;20201;-57
2023/03/23 10:04:01;;;;;;;1.57;1.47;;;;;13.30;95478.00;;;;5074382;28;20617;-57
2023/03/23 10:06:29;;;;;;;1.33;1.27;;;;;14.00;95479.00;;;;5073864;28;20666;-57
2023/03/23 10:08:58;;;;;;;1.00;1.00;;;;;13.90;95479.00;;;;5073358;28;20229;-57
2023/03/23 10:11:37;;;;;;;0.60;0.60;;;;;13.60;95472.00;;;;5073008;28;20678;-58
2023/03/23 10:14:27;;;;;;;0.67;0.67;;;;;14.00;95481.00;;;;5073373;28;20191;-57
2023/03/23 10:17:04;;;;;;;0.60;0.60;;;;;14.40;95477.00;;;;5073756;28;20225;-57
2023/03/23 10:19:38;;;;;;;1.77;1.20;;;;;14.40;95483.00;;;;5073472;28;20594;-58
2023/03/23 10:22:11;;;;;;;0.93;0.93;;;;;14.50;95482.00;;;;5074356;28;20191;-57
2023/03/23 10:24:44;;;;;;;1.00;1.00;;;;;14.30;95485.00;;;;5073500;28;20183;-58
2023/03/23 10:27:24;;;;;;;3.97;1.30;;;;;14.20;95491.00;;;;5074209;28;20223;-57
2023/03/23 10:29:57;;;;;;;0.60;0.60;;;;;13.90;95474.00;;;;5073615;28;20224;-57
2023/03/23 10:32:41;;;;;;;0.50;0.50;;;;;14.40;95490.00;;;;5073611;28;20270;-57
2023/03/23 10:35:15;;;;;;;0.73;0.73;;;;;14.00;95496.00;;;;5072928;28;20281;-57
2023/03/23 10:37:47;;;;;;;0.80;0.80;;;;;14.00;95497.00;;;;5072413;28;20251;-57
2023/03/23 10:40:20;;;;;;;0.90;0.90;;;;;14.20;95504.00;;;;5073055;28;20191;-58
2023/03/23 10:42:48;;;;;;;0.60;0.60;;;;;14.30;95496.00;;;;5073623;28;20191;-57
2023/03/23 10:45:21;;;;;;;1.40;1.30;;;;;14.50;95485.00;;;;5072992;28;20198;-57
2023/03/23 10:47:53;;;;;;;0.57;0.57;;;;;14.30;95506.00;;;;5073485;22;20229;-59
2023/03/23 10:50:26;;;;;;;1.00;1.00;;;;;14.10;95504.00;;;;5033073;28;20189;-59
2023/03/23 10:52:55;;;;;;;0.60;0.60;;;;;14.00;95496.00;;;;5033609;28;20597;-58
2023/03/23 10:55:26;;;;;;;0.70;0.70;;;;;13.80;95509.00;;;;5033179;28;20715;-58
2023/03/23 10:58:02;;;;;;;0.93;0.93;;;;;13.50;95501.00;;;;5024565;28;20221;-58
2023/03/23 11:00:31;;;;;;;0.77;0.77;;;;;13.80;95502.00;;;;5012970;28;20215;-58
2023/03/23 11:03:03;;;;;;;0.80;0.80;;;;;13.90;95501.00;;;;5013807;28;20211;-58
2023/03/23 11:05:37;;;;;;;0.70;0.70;;;;;14.20;95490.00;;;;5012874;28;20205;-59
2023/03/23 11:08:11;;;;;;;0.67;0.67;;;;;13.70;95485.00;;;;5013352;28;20267;-59
2023/03/23 11:10:41;;;;;;;0.70;0.70;;;;;13.90;95489.00;;;;5013190;28;20251;-58
2023/03/23 11:13:14;;;;;;;0.80;0.80;;;;;14.00;95485.00;;;;5029030;28;20300;-59
2023/03/23 11:15:44;;;;;;;0.60;0.60;;;;;14.30;95480.00;;;;5030733;28;20219;-59
2023/03/23 11:18:20;;;;;;;0.50;0.50;;;;;14.30;95478.00;;;;5013306;28;20221;-59
2023/03/23 11:20:50;;;;;;;0.60;0.60;;;;;14.20;95474.00;;;;5012556;28;20196;-58
2023/03/23 11:23:21;;;;;;;0.67;0.67;;;;;14.90;95471.00;;;;5012041;28;20677;-58
2023/03/23 11:25:59;;;;;;;0.57;0.57;;;;;14.80;95470.00;;;;5012874;28;20546;-58
2023/03/23 11:28:35;;;;;;;0.70;0.70;;;;;14.40;95479.00;;;;5011359;28;20221;-59
2023/03/23 11:31:06;;;;;;;0.77;0.77;;;;;14.60;95474.00;;;;5018706;28;20184;-59
2023/03/23 11:33:40;;;;;;;0.80;0.80;;;;;15.00;95475.00;;;;5032850;28;20207;-59
2023/03/23 11:36:09;;;;;;;0.60;0.60;;;;;15.00;95454.00;;;;5032524;28;20561;-59
2023/03/23 11:38:38;;;;;;;0.70;0.70;;;;;15.10;95460.00;;;;5019266;28;20218;-59
2023/03/23 11:41:12;;;;;;;0.90;0.90;;;;;14.70;95473.00;;;;5012098;28;20221;-58
2023/03/23 11:43:44;;;;;;;1.00;1.00;;;;;14.40;95480.00;;;;5012872;28;20196;-58
2023/03/23 11:46:21;;;;;;;0.60;0.60;;;;;14.50;95463.00;;;;5032428;28;20216;-58
2023/03/23 11:48:58;;;;;;;1.23;1.23;;;;;14.50;95476.00;;;;5008464;28;20227;-58
2023/03/23 11:51:31;;;;;;;0.80;0.80;;;;;14.40;95478.00;;;;5012518;28;20198;-59
2023/03/23 11:54:03;;;;;;;0.80;0.80;;;;;14.50;95478.00;;;;5014249;28;20272;-59
2023/03/23 11:56:34;;;;;;;0.60;0.60;;;;;14.90;95478.00;;;;5012291;28;20212;-58
2023/03/23 11:59:03;;;;;;;0.80;0.80;;;;;15.10;95480.00;;;;5012796;28;20225;-58
2023/03/23 12:01:44;;;;;;;0.80;0.80;;;;;14.80;95475.00;;;;5012193;28;20259;-58
2023/03/23 12:04:44;;;;;;;1.00;1.00;;;;;15.10;95477.00;;;;5009371;28;20217;-58
2023/03/23 12:07:30;;;;;;;0.60;0.60;;;;;15.20;95471.00;;;;5011580;28;20228;-59
2023/03/23 12:10:08;;;;;;;0.70;0.70;;;;;14.90;95475.00;;;;5026031;28;20235;-59
2023/03/23 12:12:42;;;;;;;1.03;1.03;;;;;14.90;95483.00;;;;5010521;28;20594;-58
2023/03/23 12:15:21;;;;;;;0.80;0.80;;;;;14.50;95493.00;;;;5013033;28;20206;-59
2023/03/23 12:18:00;;;;;;;0.80;0.80;;;;;14.60;95473.00;;;;5031560;28;20278;-59
2023/03/23 12:20:36;;;;;;;0.90;0.90;;;;;15.10;95480.00;;;;5010995;28;20224;-58
2023/03/23 12:23:19;;;;;;;0.93;0.70;;;;;15.30;95469.00;;;;5011881;28;20649;-59
2023/03/23 12:26:10;;;;;;;0.60;0.60;;;;;15.90;95463.00;;;;5026883;28;20276;-59
2023/03/23 12:29:00;;;;;;;0.50;0.50;;;;;15.90;95458.00;;;;5019132;28;20212;-57
2023/03/23 12:31:34;;;;;;;0.77;0.77;;;;;15.10;95440.00;;;;5028424;28;20256;-58
2023/03/23 12:34:11;;;;;;;1.00;1.00;;;;;15.70;95441.00;;;;5011637;28;20202;-57
2023/03/23 12:36:52;;;;;;;1.13;1.13;;;;;16.10;95438.00;;;;5011602;28;20208;-59